sensor_id;sensor_type;location;lat;lon;timestamp;P1;durP1;ratioP1;P2;durP2;ratioP2
59294;SDS011;45067;44.654;20.200;2022-07-29T00:01:47;11.10;;;8.27;;
59294;SDS011;45067;44.654;20.200;2022-07-29T00:04:13;16.40;;;9.18;;
59294;SDS011;45067;44.654;20.200;2022-07-29T00:06:39;11.88;;;8.75;;
59294;SDS011;45067;44.654;20.200;2022-07-29T00:12:09;14.77;;;7.88;;
59294;SDS011;45067;44.654;20.200;2022-07-29T00:14:35;12.35;;;7.28;;
59294;SDS011;45067;44.654;20.200;2022-07-29T00:17:01;11.63;;;8.77;;
59294;SDS011;45067;44.654;20.200;2022-07-29T00:19:27;15.40;;;10.70;;
59294;SDS011;45067;44.654;20.200;2022-07-29T00:22:22;19.70;;;10.80;;
59294;SDS011;45067;44.654;20.200;2022-07-29T00:24:48;21.67;;;12.25;;
59294;SDS011;45067;44.654;20.200;2022-07-29T00:27:20;18.80;;;13.02;;
59294;SDS011;45067;44.654;20.200;2022-07-29T00:29:49;18.70;;;12.63;;
59294;SDS011;45067;44.654;20.200;2022-07-29T00:32:15;15.27;;;11.35;;
59294;SDS011;45067;44.654;20.200;2022-07-29T00:34:42;22.83;;;12.63;;
59294;SDS011;45067;44.654;20.200;2022-07-29T00:37:26;15.68;;;11.65;;
59294;SDS011;45067;44.654;20.200;2022-07-29T00:39:55;17.50;;;11.15;;
59294;SDS011;45067;44.654;20.200;2022-07-29T00:42:30;17.25;;;10.93;;
59294;SDS011;45067;44.654;20.200;2022-07-29T00:44:59;15.07;;;10.70;;
59294;SDS011;45067;44.654;20.200;2022-07-29T00:47:43;18.50;;;10.63;;
59294;SDS011;45067;44.654;20.200;2022-07-29T00:50:21;11.75;;;9.90;;
59294;SDS011;45067;44.654;20.200;2022-07-29T00:52:47;14.80;;;10.50;;
59294;SDS011;45067;44.654;20.200;2022-07-29T00:55:14;14.77;;;9.85;;
59294;SDS011;45067;44.654;20.200;2022-07-29T00:57:41;14.25;;;11.40;;
59294;SDS011;45067;44.654;20.200;2022-07-29T01:00:08;12.20;;;9.68;;
59294;SDS011;45067;44.654;20.200;2022-07-29T01:02:35;14.10;;;9.98;;
59294;SDS011;45067;44.654;20.200;2022-07-29T01:05:02;23.85;;;18.75;;
59294;SDS011;45067;44.654;20.200;2022-07-29T01:07:28;19.10;;;13.88;;
59294;SDS011;45067;44.654;20.200;2022-07-29T01:09:55;15.15;;;10.98;;
59294;SDS011;45067;44.654;20.200;2022-07-29T01:12:25;16.35;;;12.20;;
59294;SDS011;45067;44.654;20.200;2022-07-29T01:14:53;16.65;;;12.73;;
59294;SDS011;45067;44.654;20.200;2022-07-29T01:31:02;21.83;;;13.27;;
59294;SDS011;45067;44.654;20.200;2022-07-29T01:33:28;19.15;;;13.93;;
59294;SDS011;45067;44.654;20.200;2022-07-29T01:36:16;18.10;;;12.35;;
59294;SDS011;45067;44.654;20.200;2022-07-29T01:38:43;19.90;;;13.10;;
59294;SDS011;45067;44.654;20.200;2022-07-29T01:41:12;16.15;;;12.35;;
59294;SDS011;45067;44.654;20.200;2022-07-29T01:44:01;16.40;;;12.68;;
59294;SDS011;45067;44.654;20.200;2022-07-29T01:46:33;21.33;;;12.80;;
59294;SDS011;45067;44.654;20.200;2022-07-29T01:49:02;17.48;;;12.48;;
59294;SDS011;45067;44.654;20.200;2022-07-29T01:51:36;17.38;;;12.25;;
59294;SDS011;45067;44.654;20.200;2022-07-29T01:54:08;15.82;;;11.57;;
59294;SDS011;45067;44.654;20.200;2022-07-29T01:56:36;18.02;;;11.40;;
59294;SDS011;45067;44.654;20.200;2022-07-29T01:59:04;14.65;;;11.48;;
59294;SDS011;45067;44.654;20.200;2022-07-29T02:01:31;16.88;;;11.32;;
59294;SDS011;45067;44.654;20.200;2022-07-29T02:03:58;16.73;;;10.35;;
59294;SDS011;45067;44.654;20.200;2022-07-29T02:06:29;16.40;;;11.02;;
59294;SDS011;45067;44.654;20.200;2022-07-29T02:08:57;17.30;;;10.38;;
59294;SDS011;45067;44.654;20.200;2022-07-29T02:11:24;17.02;;;10.82;;
59294;SDS011;45067;44.654;20.200;2022-07-29T02:13:51;13.02;;;10.00;;
59294;SDS011;45067;44.654;20.200;2022-07-29T02:16:18;15.50;;;11.38;;
59294;SDS011;45067;44.654;20.200;2022-07-29T02:18:46;18.15;;;12.43;;
59294;SDS011;45067;44.654;20.200;2022-07-29T02:21:13;22.05;;;17.23;;
59294;SDS011;45067;44.654;20.200;2022-07-29T02:23:43;24.20;;;18.63;;
59294;SDS011;45067;44.654;20.200;2022-07-29T02:26:10;17.10;;;12.77;;
59294;SDS011;45067;44.654;20.200;2022-07-29T02:28:36;15.15;;;11.02;;
59294;SDS011;45067;44.654;20.200;2022-07-29T02:31:04;13.23;;;10.65;;
59294;SDS011;45067;44.654;20.200;2022-07-29T02:33:31;12.43;;;10.73;;
59294;SDS011;45067;44.654;20.200;2022-07-29T02:35:58;15.18;;;10.40;;
59294;SDS011;45067;44.654;20.200;2022-07-29T02:38:24;15.48;;;11.52;;
59294;SDS011;45067;44.654;20.200;2022-07-29T02:41:10;17.15;;;11.30;;
59294;SDS011;45067;44.654;20.200;2022-07-29T02:43:38;12.18;;;10.85;;
59294;SDS011;45067;44.654;20.200;2022-07-29T02:46:05;15.40;;;11.45;;
59294;SDS011;45067;44.654;20.200;2022-07-29T02:51:49;17.52;;;12.50;;
59294;SDS011;45067;44.654;20.200;2022-07-29T02:54:22;15.30;;;11.60;;
59294;SDS011;45067;44.654;20.200;2022-07-29T02:56:52;16.63;;;12.00;;
59294;SDS011;45067;44.654;20.200;2022-07-29T02:59:23;17.00;;;12.48;;
59294;SDS011;45067;44.654;20.200;2022-07-29T03:01:54;16.63;;;11.38;;
59294;SDS011;45067;44.654;20.200;2022-07-29T03:04:21;16.95;;;12.23;;
59294;SDS011;45067;44.654;20.200;2022-07-29T03:06:48;13.60;;;11.38;;
59294;SDS011;45067;44.654;20.200;2022-07-29T03:09:15;18.73;;;12.45;;
59294;SDS011;45067;44.654;20.200;2022-07-29T03:11:42;17.30;;;11.57;;
59294;SDS011;45067;44.654;20.200;2022-07-29T03:14:09;16.15;;;11.77;;
59294;SDS011;45067;44.654;20.200;2022-07-29T03:16:36;18.63;;;11.45;;
59294;SDS011;45067;44.654;20.200;2022-07-29T03:19:05;15.32;;;11.25;;
59294;SDS011;45067;44.654;20.200;2022-07-29T03:21:31;16.63;;;11.70;;
59294;SDS011;45067;44.654;20.200;2022-07-29T03:23:57;14.88;;;11.18;;
59294;SDS011;45067;44.654;20.200;2022-07-29T03:26:23;15.45;;;11.57;;
59294;SDS011;45067;44.654;20.200;2022-07-29T03:28:50;15.90;;;11.43;;
59294;SDS011;45067;44.654;20.200;2022-07-29T03:31:16;20.17;;;12.15;;
59294;SDS011;45067;44.654;20.200;2022-07-29T03:33:42;18.70;;;11.70;;
59294;SDS011;45067;44.654;20.200;2022-07-29T03:36:08;16.50;;;12.45;;
59294;SDS011;45067;44.654;20.200;2022-07-29T03:38:34;16.92;;;12.10;;
59294;SDS011;45067;44.654;20.200;2022-07-29T03:41:04;18.17;;;11.55;;
59294;SDS011;45067;44.654;20.200;2022-07-29T03:43:32;15.35;;;11.77;;
59294;SDS011;45067;44.654;20.200;2022-07-29T03:46:00;17.23;;;11.70;;
59294;SDS011;45067;44.654;20.200;2022-07-29T03:48:30;17.33;;;12.55;;
59294;SDS011;45067;44.654;20.200;2022-07-29T03:51:01;20.83;;;12.85;;
59294;SDS011;45067;44.654;20.200;2022-07-29T03:53:28;16.33;;;11.85;;
59294;SDS011;45067;44.654;20.200;2022-07-29T03:55:55;22.05;;;12.75;;
59294;SDS011;45067;44.654;20.200;2022-07-29T03:58:23;16.15;;;12.23;;
59294;SDS011;45067;44.654;20.200;2022-07-29T04:00:51;17.42;;;12.07;;
59294;SDS011;45067;44.654;20.200;2022-07-29T04:03:18;17.92;;;12.02;;
59294;SDS011;45067;44.654;20.200;2022-07-29T04:05:44;19.27;;;12.23;;
59294;SDS011;45067;44.654;20.200;2022-07-29T04:08:10;20.90;;;12.93;;
59294;SDS011;45067;44.654;20.200;2022-07-29T04:10:37;20.63;;;12.60;;
59294;SDS011;45067;44.654;20.200;2022-07-29T04:13:03;22.33;;;12.07;;
59294;SDS011;45067;44.654;20.200;2022-07-29T04:15:29;21.42;;;13.23;;
59294;SDS011;45067;44.654;20.200;2022-07-29T04:17:55;22.75;;;12.98;;
59294;SDS011;45067;44.654;20.200;2022-07-29T04:20:25;21.00;;;12.75;;
59294;SDS011;45067;44.654;20.200;2022-07-29T04:25:54;18.52;;;12.38;;
59294;SDS011;45067;44.654;20.200;2022-07-29T04:28:20;19.33;;;12.35;;
59294;SDS011;45067;44.654;20.200;2022-07-29T04:30:46;16.75;;;12.88;;
59294;SDS011;45067;44.654;20.200;2022-07-29T04:33:12;19.50;;;12.65;;
59294;SDS011;45067;44.654;20.200;2022-07-29T04:35:39;17.48;;;12.95;;
59294;SDS011;45067;44.654;20.200;2022-07-29T04:38:05;20.25;;;12.07;;
59294;SDS011;45067;44.654;20.200;2022-07-29T04:40:32;16.75;;;12.27;;
59294;SDS011;45067;44.654;20.200;2022-07-29T04:42:59;16.20;;;11.82;;
59294;SDS011;45067;44.654;20.200;2022-07-29T04:45:26;13.32;;;11.13;;
59294;SDS011;45067;44.654;20.200;2022-07-29T04:47:52;16.98;;;12.43;;
59294;SDS011;45067;44.654;20.200;2022-07-29T04:50:18;18.98;;;11.63;;
59294;SDS011;45067;44.654;20.200;2022-07-29T04:52:44;18.17;;;12.48;;
59294;SDS011;45067;44.654;20.200;2022-07-29T04:55:10;22.30;;;12.93;;
59294;SDS011;45067;44.654;20.200;2022-07-29T04:57:36;17.65;;;12.50;;
59294;SDS011;45067;44.654;20.200;2022-07-29T05:00:03;22.42;;;13.35;;
59294;SDS011;45067;44.654;20.200;2022-07-29T05:02:29;17.20;;;12.25;;
59294;SDS011;45067;44.654;20.200;2022-07-29T05:04:55;17.83;;;12.57;;
59294;SDS011;45067;44.654;20.200;2022-07-29T05:07:22;20.20;;;13.20;;
59294;SDS011;45067;44.654;20.200;2022-07-29T05:12:51;15.30;;;11.70;;
59294;SDS011;45067;44.654;20.200;2022-07-29T05:15:17;15.75;;;12.45;;
59294;SDS011;45067;44.654;20.200;2022-07-29T05:17:44;15.85;;;12.18;;
59294;SDS011;45067;44.654;20.200;2022-07-29T05:20:10;16.10;;;12.10;;
59294;SDS011;45067;44.654;20.200;2022-07-29T05:22:36;18.40;;;11.05;;
59294;SDS011;45067;44.654;20.200;2022-07-29T05:28:24;17.88;;;11.07;;
59294;SDS011;45067;44.654;20.200;2022-07-29T05:30:50;16.10;;;11.48;;
59294;SDS011;45067;44.654;20.200;2022-07-29T05:33:16;15.93;;;12.32;;
59294;SDS011;45067;44.654;20.200;2022-07-29T05:35:42;17.88;;;10.88;;
59294;SDS011;45067;44.654;20.200;2022-07-29T05:38:08;14.95;;;10.63;;
59294;SDS011;45067;44.654;20.200;2022-07-29T05:40:34;15.63;;;11.23;;
59294;SDS011;45067;44.654;20.200;2022-07-29T05:43:03;14.35;;;11.02;;
59294;SDS011;45067;44.654;20.200;2022-07-29T05:45:29;14.35;;;10.60;;
59294;SDS011;45067;44.654;20.200;2022-07-29T05:47:55;14.25;;;10.23;;
59294;SDS011;45067;44.654;20.200;2022-07-29T05:50:22;16.38;;;10.90;;
59294;SDS011;45067;44.654;20.200;2022-07-29T05:52:48;15.23;;;11.07;;
59294;SDS011;45067;44.654;20.200;2022-07-29T05:55:14;13.10;;;10.15;;
59294;SDS011;45067;44.654;20.200;2022-07-29T05:57:40;15.57;;;10.35;;
59294;SDS011;45067;44.654;20.200;2022-07-29T06:00:08;14.73;;;10.27;;
59294;SDS011;45067;44.654;20.200;2022-07-29T06:02:34;12.38;;;9.73;;
59294;SDS011;45067;44.654;20.200;2022-07-29T06:05:00;14.38;;;10.38;;
59294;SDS011;45067;44.654;20.200;2022-07-29T06:07:26;13.05;;;10.38;;
59294;SDS011;45067;44.654;20.200;2022-07-29T06:12:56;17.50;;;10.32;;
59294;SDS011;45067;44.654;20.200;2022-07-29T06:15:22;13.05;;;8.95;;
59294;SDS011;45067;44.654;20.200;2022-07-29T06:17:48;17.40;;;9.93;;
59294;SDS011;45067;44.654;20.200;2022-07-29T06:20:14;20.65;;;10.68;;
59294;SDS011;45067;44.654;20.200;2022-07-29T06:22:40;14.80;;;9.88;;
59294;SDS011;45067;44.654;20.200;2022-07-29T06:28:10;15.73;;;9.25;;
59294;SDS011;45067;44.654;20.200;2022-07-29T06:30:37;16.70;;;9.77;;
59294;SDS011;45067;44.654;20.200;2022-07-29T06:33:03;12.60;;;9.18;;
59294;SDS011;45067;44.654;20.200;2022-07-29T06:35:29;18.40;;;13.68;;
59294;SDS011;45067;44.654;20.200;2022-07-29T06:37:55;17.58;;;10.88;;
59294;SDS011;45067;44.654;20.200;2022-07-29T06:40:21;14.98;;;10.40;;
59294;SDS011;45067;44.654;20.200;2022-07-29T06:43:06;17.30;;;11.20;;
59294;SDS011;45067;44.654;20.200;2022-07-29T06:45:35;14.10;;;9.65;;
59294;SDS011;45067;44.654;20.200;2022-07-29T06:48:01;12.40;;;9.40;;
59294;SDS011;45067;44.654;20.200;2022-07-29T06:50:27;14.70;;;9.88;;
59294;SDS011;45067;44.654;20.200;2022-07-29T06:52:54;10.95;;;8.98;;
59294;SDS011;45067;44.654;20.200;2022-07-29T06:55:21;14.38;;;8.32;;
59294;SDS011;45067;44.654;20.200;2022-07-29T06:57:47;11.95;;;9.18;;
59294;SDS011;45067;44.654;20.200;2022-07-29T07:00:13;15.30;;;9.18;;
59294;SDS011;45067;44.654;20.200;2022-07-29T07:02:40;13.05;;;9.43;;
59294;SDS011;45067;44.654;20.200;2022-07-29T07:05:06;12.95;;;8.82;;
59294;SDS011;45067;44.654;20.200;2022-07-29T07:07:32;15.93;;;9.05;;
59294;SDS011;45067;44.654;20.200;2022-07-29T07:13:02;14.38;;;7.97;;
59294;SDS011;45067;44.654;20.200;2022-07-29T07:15:28;15.85;;;8.75;;
59294;SDS011;45067;44.654;20.200;2022-07-29T07:17:54;14.70;;;8.30;;
59294;SDS011;45067;44.654;20.200;2022-07-29T07:20:22;10.98;;;8.45;;
59294;SDS011;45067;44.654;20.200;2022-07-29T07:22:48;8.82;;;7.93;;
59294;SDS011;45067;44.654;20.200;2022-07-29T07:28:18;10.13;;;7.50;;
59294;SDS011;45067;44.654;20.200;2022-07-29T07:30:47;10.20;;;7.07;;
59294;SDS011;45067;44.654;20.200;2022-07-29T07:33:13;9.80;;;7.55;;
59294;SDS011;45067;44.654;20.200;2022-07-29T07:35:40;9.15;;;6.95;;
59294;SDS011;45067;44.654;20.200;2022-07-29T07:38:08;9.07;;;6.90;;
59294;SDS011;45067;44.654;20.200;2022-07-29T07:40:34;10.65;;;7.60;;
59294;SDS011;45067;44.654;20.200;2022-07-29T07:43:00;11.32;;;7.80;;
59294;SDS011;45067;44.654;20.200;2022-07-29T07:45:27;11.18;;;8.00;;
59294;SDS011;45067;44.654;20.200;2022-07-29T07:47:53;11.00;;;7.35;;
59294;SDS011;45067;44.654;20.200;2022-07-29T07:50:19;8.52;;;6.93;;
59294;SDS011;45067;44.654;20.200;2022-07-29T07:52:46;10.48;;;7.60;;
59294;SDS011;45067;44.654;20.200;2022-07-29T07:58:16;11.75;;;7.43;;
59294;SDS011;45067;44.654;20.200;2022-07-29T08:00:45;10.95;;;8.02;;
59294;SDS011;45067;44.654;20.200;2022-07-29T08:03:12;8.20;;;7.07;;
59294;SDS011;45067;44.654;20.200;2022-07-29T08:05:39;8.40;;;6.90;;
59294;SDS011;45067;44.654;20.200;2022-07-29T08:08:05;9.57;;;7.40;;
59294;SDS011;45067;44.654;20.200;2022-07-29T08:13:54;9.80;;;7.50;;
59294;SDS011;45067;44.654;20.200;2022-07-29T08:16:20;9.50;;;7.90;;
59294;SDS011;45067;44.654;20.200;2022-07-29T08:18:47;8.18;;;7.28;;
59294;SDS011;45067;44.654;20.200;2022-07-29T08:21:16;8.27;;;7.38;;
59294;SDS011;45067;44.654;20.200;2022-07-29T08:23:43;11.85;;;7.63;;
59294;SDS011;45067;44.654;20.200;2022-07-29T08:26:14;9.40;;;7.53;;
59294;SDS011;45067;44.654;20.200;2022-07-29T08:28:43;8.80;;;7.68;;
59294;SDS011;45067;44.654;20.200;2022-07-29T08:31:13;8.57;;;6.88;;
59294;SDS011;45067;44.654;20.200;2022-07-29T08:33:39;9.73;;;7.53;;
59294;SDS011;45067;44.654;20.200;2022-07-29T08:36:05;8.77;;;7.25;;
59294;SDS011;45067;44.654;20.200;2022-07-29T08:38:32;9.43;;;7.75;;
59294;SDS011;45067;44.654;20.200;2022-07-29T08:41:01;11.02;;;9.40;;
59294;SDS011;45067;44.654;20.200;2022-07-29T08:43:27;8.63;;;7.45;;
59294;SDS011;45067;44.654;20.200;2022-07-29T08:45:57;7.85;;;7.05;;
59294;SDS011;45067;44.654;20.200;2022-07-29T08:48:23;8.88;;;7.22;;
59294;SDS011;45067;44.654;20.200;2022-07-29T08:50:55;8.98;;;7.28;;
59294;SDS011;45067;44.654;20.200;2022-07-29T08:53:23;9.95;;;8.25;;
59294;SDS011;45067;44.654;20.200;2022-07-29T08:55:51;8.53;;;7.73;;
59294;SDS011;45067;44.654;20.200;2022-07-29T08:58:18;11.93;;;8.18;;
59294;SDS011;45067;44.654;20.200;2022-07-29T09:00:45;9.77;;;7.45;;
59294;SDS011;45067;44.654;20.200;2022-07-29T09:03:12;9.00;;;7.32;;
59294;SDS011;45067;44.654;20.200;2022-07-29T09:05:45;11.02;;;7.80;;
59294;SDS011;45067;44.654;20.200;2022-07-29T09:08:11;9.18;;;7.28;;
59294;SDS011;45067;44.654;20.200;2022-07-29T09:14:00;8.57;;;6.85;;
59294;SDS011;45067;44.654;20.200;2022-07-29T09:16:42;12.43;;;6.82;;
59294;SDS011;45067;44.654;20.200;2022-07-29T09:21:51;9.20;;;7.30;;
59294;SDS011;45067;44.654;20.200;2022-07-29T09:24:23;8.20;;;7.15;;
59294;SDS011;45067;44.654;20.200;2022-07-29T09:26:49;13.70;;;6.95;;
59294;SDS011;45067;44.654;20.200;2022-07-29T09:29:17;8.40;;;7.47;;
59294;SDS011;45067;44.654;20.200;2022-07-29T09:31:47;9.00;;;7.90;;
59294;SDS011;45067;44.654;20.200;2022-07-29T09:34:15;9.98;;;7.38;;
59294;SDS011;45067;44.654;20.200;2022-07-29T09:36:42;8.15;;;7.05;;
59294;SDS011;45067;44.654;20.200;2022-07-29T09:39:08;7.95;;;7.15;;
59294;SDS011;45067;44.654;20.200;2022-07-29T09:41:48;9.68;;;8.18;;
59294;SDS011;45067;44.654;20.200;2022-07-29T09:44:15;9.68;;;8.32;;
59294;SDS011;45067;44.654;20.200;2022-07-29T09:46:58;10.38;;;8.73;;
59294;SDS011;45067;44.654;20.200;2022-07-29T09:49:31;15.38;;;11.10;;
59294;SDS011;45067;44.654;20.200;2022-07-29T09:52:03;11.23;;;7.85;;
59294;SDS011;45067;44.654;20.200;2022-07-29T09:54:32;8.70;;;7.65;;
59294;SDS011;45067;44.654;20.200;2022-07-29T09:57:07;11.15;;;9.50;;
59294;SDS011;45067;44.654;20.200;2022-07-29T09:59:37;10.70;;;8.85;;
59294;SDS011;45067;44.654;20.200;2022-07-29T10:02:12;14.35;;;8.88;;
59294;SDS011;45067;44.654;20.200;2022-07-29T10:04:42;9.75;;;8.27;;
59294;SDS011;45067;44.654;20.200;2022-07-29T10:07:09;8.70;;;7.80;;
59294;SDS011;45067;44.654;20.200;2022-07-29T10:09:35;9.07;;;8.18;;
59294;SDS011;45067;44.654;20.200;2022-07-29T10:12:12;11.48;;;8.07;;
59294;SDS011;45067;44.654;20.200;2022-07-29T10:14:41;8.48;;;7.57;;
59294;SDS011;45067;44.654;20.200;2022-07-29T10:17:13;10.20;;;7.88;;
59294;SDS011;45067;44.654;20.200;2022-07-29T10:19:41;8.50;;;7.28;;
59294;SDS011;45067;44.654;20.200;2022-07-29T10:22:08;9.45;;;7.55;;
59294;SDS011;45067;44.654;20.200;2022-07-29T10:24:36;10.18;;;7.82;;
59294;SDS011;45067;44.654;20.200;2022-07-29T10:27:04;10.15;;;7.05;;
59294;SDS011;45067;44.654;20.200;2022-07-29T10:29:30;8.32;;;7.53;;
59294;SDS011;45067;44.654;20.200;2022-07-29T10:38:12;16.65;;;14.95;;
59294;SDS011;45067;44.654;20.200;2022-07-29T10:40:24;11.98;;;9.40;;
59294;SDS011;45067;44.654;20.200;2022-07-29T10:43:31;13.55;;;9.77;;
59294;SDS011;45067;44.654;20.200;2022-07-29T10:46:01;12.60;;;9.75;;
59294;SDS011;45067;44.654;20.200;2022-07-29T10:48:27;10.10;;;8.23;;
59294;SDS011;45067;44.654;20.200;2022-07-29T10:51:00;9.38;;;7.63;;
59294;SDS011;45067;44.654;20.200;2022-07-29T10:56:31;17.50;;;12.80;;
59294;SDS011;45067;44.654;20.200;2022-07-29T11:01:47;13.25;;;10.90;;
59294;SDS011;45067;44.654;20.200;2022-07-29T11:04:14;13.15;;;10.68;;
59294;SDS011;45067;44.654;20.200;2022-07-29T11:18:16;11.07;;;9.95;;
59294;SDS011;45067;44.654;20.200;2022-07-29T11:23:17;11.65;;;10.35;;
59294;SDS011;45067;44.654;20.200;2022-07-29T11:28:51;12.40;;;9.88;;
59294;SDS011;45067;44.654;20.200;2022-07-29T11:33:55;9.38;;;8.30;;
59294;SDS011;45067;44.654;20.200;2022-07-29T11:36:22;11.02;;;8.23;;
59294;SDS011;45067;44.654;20.200;2022-07-29T11:38:48;11.52;;;8.77;;
59294;SDS011;45067;44.654;20.200;2022-07-29T11:43:50;12.15;;;10.85;;
59294;SDS011;45067;44.654;20.200;2022-07-29T11:49:02;12.07;;;10.77;;
59294;SDS011;45067;44.654;20.200;2022-07-29T11:51:29;10.38;;;9.10;;
59294;SDS011;45067;44.654;20.200;2022-07-29T11:53:56;11.98;;;9.15;;
59294;SDS011;45067;44.654;20.200;2022-07-29T11:56:23;12.13;;;10.90;;
59294;SDS011;45067;44.654;20.200;2022-07-29T11:59:01;12.95;;;11.65;;
59294;SDS011;45067;44.654;20.200;2022-07-29T12:01:31;9.82;;;8.82;;
59294;SDS011;45067;44.654;20.200;2022-07-29T12:04:06;10.65;;;9.55;;
59294;SDS011;45067;44.654;20.200;2022-07-29T12:06:35;10.63;;;8.60;;
59294;SDS011;45067;44.654;20.200;2022-07-29T12:09:07;9.73;;;8.50;;
59294;SDS011;45067;44.654;20.200;2022-07-29T12:11:36;9.60;;;8.70;;
59294;SDS011;45067;44.654;20.200;2022-07-29T12:14:04;9.40;;;8.48;;
59294;SDS011;45067;44.654;20.200;2022-07-29T12:16:36;10.65;;;9.20;;
59294;SDS011;45067;44.654;20.200;2022-07-29T12:19:02;10.43;;;9.27;;
59294;SDS011;45067;44.654;20.200;2022-07-29T12:21:42;9.57;;;8.68;;
59294;SDS011;45067;44.654;20.200;2022-07-29T12:24:08;9.20;;;8.30;;
59294;SDS011;45067;44.654;20.200;2022-07-29T12:26:34;10.68;;;9.55;;
59294;SDS011;45067;44.654;20.200;2022-07-29T12:29:01;9.48;;;8.50;;
59294;SDS011;45067;44.654;20.200;2022-07-29T12:31:27;13.30;;;10.95;;
59294;SDS011;45067;44.654;20.200;2022-07-29T12:33:53;13.30;;;10.38;;
59294;SDS011;45067;44.654;20.200;2022-07-29T12:36:25;12.13;;;10.85;;
59294;SDS011;45067;44.654;20.200;2022-07-29T12:38:52;14.10;;;12.60;;
59294;SDS011;45067;44.654;20.200;2022-07-29T12:44:46;10.20;;;9.13;;
59294;SDS011;45067;44.654;20.200;2022-07-29T12:47:14;10.93;;;9.60;;
59294;SDS011;45067;44.654;20.200;2022-07-29T12:49:40;17.17;;;12.85;;
59294;SDS011;45067;44.654;20.200;2022-07-29T12:54:54;12.25;;;10.95;;
59294;SDS011;45067;44.654;20.200;2022-07-29T12:57:20;9.43;;;8.48;;
59294;SDS011;45067;44.654;20.200;2022-07-29T13:00:06;9.95;;;8.80;;
59294;SDS011;45067;44.654;20.200;2022-07-29T13:02:35;33.97;;;28.50;;
59294;SDS011;45067;44.654;20.200;2022-07-29T13:05:02;24.42;;;20.25;;
59294;SDS011;45067;44.654;20.200;2022-07-29T13:07:29;12.60;;;8.98;;
59294;SDS011;45067;44.654;20.200;2022-07-29T13:10:16;9.48;;;8.48;;
59294;SDS011;45067;44.654;20.200;2022-07-29T13:15:47;12.93;;;10.43;;
59294;SDS011;45067;44.654;20.200;2022-07-29T13:18:33;8.95;;;8.05;;
59294;SDS011;45067;44.654;20.200;2022-07-29T13:21:13;9.20;;;8.20;;
59294;SDS011;45067;44.654;20.200;2022-07-29T13:23:40;9.25;;;8.15;;
59294;SDS011;45067;44.654;20.200;2022-07-29T13:26:06;9.50;;;8.50;;
59294;SDS011;45067;44.654;20.200;2022-07-29T13:28:33;12.27;;;8.43;;
59294;SDS011;45067;44.654;20.200;2022-07-29T13:31:01;10.32;;;8.48;;
59294;SDS011;45067;44.654;20.200;2022-07-29T13:33:27;11.82;;;9.63;;
59294;SDS011;45067;44.654;20.200;2022-07-29T13:35:54;10.23;;;8.63;;
59294;SDS011;45067;44.654;20.200;2022-07-29T13:38:20;14.55;;;13.05;;
59294;SDS011;45067;44.654;20.200;2022-07-29T13:40:46;10.40;;;8.20;;
59294;SDS011;45067;44.654;20.200;2022-07-29T13:43:12;9.10;;;8.30;;
59294;SDS011;45067;44.654;20.200;2022-07-29T13:45:39;9.27;;;8.27;;
59294;SDS011;45067;44.654;20.200;2022-07-29T13:48:05;13.60;;;9.40;;
59294;SDS011;45067;44.654;20.200;2022-07-29T13:50:34;13.20;;;8.93;;
59294;SDS011;45067;44.654;20.200;2022-07-29T13:53:00;14.63;;;13.13;;
59294;SDS011;45067;44.654;20.200;2022-07-29T13:55:26;10.38;;;8.88;;
59294;SDS011;45067;44.654;20.200;2022-07-29T13:57:52;9.02;;;8.13;;
59294;SDS011;45067;44.654;20.200;2022-07-29T14:00:20;9.68;;;8.60;;
59294;SDS011;45067;44.654;20.200;2022-07-29T14:02:48;9.45;;;8.45;;
59294;SDS011;45067;44.654;20.200;2022-07-29T14:05:14;9.18;;;8.25;;
59294;SDS011;45067;44.654;20.200;2022-07-29T14:07:40;9.82;;;8.65;;
59294;SDS011;45067;44.654;20.200;2022-07-29T14:10:07;10.38;;;8.93;;
59294;SDS011;45067;44.654;20.200;2022-07-29T14:12:33;10.35;;;8.48;;
59294;SDS011;45067;44.654;20.200;2022-07-29T14:14:59;9.05;;;8.15;;
59294;SDS011;45067;44.654;20.200;2022-07-29T14:17:26;9.15;;;8.02;;
59294;SDS011;45067;44.654;20.200;2022-07-29T14:19:52;12.65;;;10.93;;
59294;SDS011;45067;44.654;20.200;2022-07-29T14:22:18;15.25;;;13.38;;
59294;SDS011;45067;44.654;20.200;2022-07-29T14:24:45;25.38;;;22.58;;
59294;SDS011;45067;44.654;20.200;2022-07-29T14:27:11;17.05;;;15.20;;
59294;SDS011;45067;44.654;20.200;2022-07-29T14:29:37;15.98;;;14.30;;
59294;SDS011;45067;44.654;20.200;2022-07-29T14:32:03;10.95;;;9.38;;
59294;SDS011;45067;44.654;20.200;2022-07-29T14:34:30;9.60;;;8.45;;
59294;SDS011;45067;44.654;20.200;2022-07-29T14:36:56;10.88;;;8.73;;
59294;SDS011;45067;44.654;20.200;2022-07-29T14:39:22;9.45;;;8.60;;
59294;SDS011;45067;44.654;20.200;2022-07-29T14:41:48;12.00;;;10.05;;
59294;SDS011;45067;44.654;20.200;2022-07-29T14:44:15;12.20;;;11.07;;
59294;SDS011;45067;44.654;20.200;2022-07-29T14:46:42;10.65;;;9.65;;
59294;SDS011;45067;44.654;20.200;2022-07-29T14:49:08;10.38;;;9.00;;
59294;SDS011;45067;44.654;20.200;2022-07-29T14:51:34;10.15;;;9.13;;
59294;SDS011;45067;44.654;20.200;2022-07-29T14:54:01;12.77;;;10.55;;
59294;SDS011;45067;44.654;20.200;2022-07-29T14:59:31;12.77;;;11.30;;
59294;SDS011;45067;44.654;20.200;2022-07-29T15:01:57;11.63;;;9.70;;
59294;SDS011;45067;44.654;20.200;2022-07-29T15:04:23;15.18;;;12.27;;
59294;SDS011;45067;44.654;20.200;2022-07-29T15:06:49;11.20;;;10.00;;
59294;SDS011;45067;44.654;20.200;2022-07-29T15:09:16;10.88;;;9.77;;
59294;SDS011;45067;44.654;20.200;2022-07-29T15:14:46;16.80;;;13.32;;
59294;SDS011;45067;44.654;20.200;2022-07-29T15:17:12;22.60;;;20.25;;
59294;SDS011;45067;44.654;20.200;2022-07-29T15:19:38;16.00;;;12.93;;
59294;SDS011;45067;44.654;20.200;2022-07-29T15:22:04;15.38;;;13.57;;
59294;SDS011;45067;44.654;20.200;2022-07-29T15:24:30;15.40;;;13.80;;
59294;SDS011;45067;44.654;20.200;2022-07-29T15:26:57;15.38;;;13.10;;
59294;SDS011;45067;44.654;20.200;2022-07-29T15:29:23;16.30;;;13.15;;
59294;SDS011;45067;44.654;20.200;2022-07-29T15:31:49;17.92;;;13.57;;
59294;SDS011;45067;44.654;20.200;2022-07-29T15:34:15;12.80;;;11.50;;
59294;SDS011;45067;44.654;20.200;2022-07-29T15:36:41;18.27;;;16.15;;
59294;SDS011;45067;44.654;20.200;2022-07-29T15:39:07;14.70;;;12.55;;
59294;SDS011;45067;44.654;20.200;2022-07-29T15:44:37;16.30;;;14.50;;
59294;SDS011;45067;44.654;20.200;2022-07-29T15:47:04;15.70;;;12.93;;
59294;SDS011;45067;44.654;20.200;2022-07-29T15:52:01;16.67;;;13.15;;
59294;SDS011;45067;44.654;20.200;2022-07-29T15:54:28;25.67;;;22.60;;
59294;SDS011;45067;44.654;20.200;2022-07-29T15:59:58;23.08;;;20.02;;
59294;SDS011;45067;44.654;20.200;2022-07-29T16:02:24;34.70;;;25.63;;
59294;SDS011;45067;44.654;20.200;2022-07-29T16:04:50;25.65;;;21.20;;
59294;SDS011;45067;44.654;20.200;2022-07-29T16:07:16;19.50;;;15.10;;
59294;SDS011;45067;44.654;20.200;2022-07-29T16:09:42;13.02;;;11.60;;
59294;SDS011;45067;44.654;20.200;2022-07-29T16:12:08;15.57;;;11.98;;
59294;SDS011;45067;44.654;20.200;2022-07-29T16:14:34;12.80;;;11.35;;
59294;SDS011;45067;44.654;20.200;2022-07-29T16:17:00;20.40;;;17.92;;
59294;SDS011;45067;44.654;20.200;2022-07-29T16:19:28;13.93;;;11.43;;